Time,TemperatureF,DewpointF,PressureIn,WindDirection,WindDirectionDegrees,WindSpeedMPH,WindSpeedGustMPH,Humidity,HourlyPrecipIn,Conditions,Clouds,dailyrainin,SoftwareType,DateUTC
2013-07-22 00:00:00,69.8,51.3,28.97,NE,37,0.0,0.0,52,0.00,,,0.00,Weather View 32 v70,2013-07-22 04:00:00,
2013-07-22 00:10:00,69.6,51.2,28.97,NE,37,0.0,0.0,52,0.00,,,0.00,Weather View 32 v70,2013-07-22 04:10:00,
2013-07-22 00:20:00,69.6,51.7,28.97,NE,37,0.0,0.0,53,0.00,,,0.00,Weather View 32 v70,2013-07-22 04:20:00,
2013-07-22 00:26:00,69.6,51.7,28.97,NE,37,0.0,0.0,53,0.00,,,0.00,Weather View 32 v70,2013-07-22 04:26:00,
2013-07-22 00:30:00,69.4,52.0,28.97,NE,37,0.0,0.0,54,0.00,,,0.00,Weather View 32 v70,2013-07-22 04:30:00,
2013-07-22 00:40:00,69.3,52.8,28.97,NE,37,0.0,0.0,56,0.00,,,0.00,Weather View 32 v70,2013-07-22 04:40:00,
2013-07-22 00:50:00,69.3,52.8,28.97,NE,37,0.0,0.0,56,0.00,,,0.00,Weather View 32 v70,2013-07-22 04:50:00,
2013-07-22 01:00:00,69.3,53.3,28.97,NE,48,0.0,0.0,57,0.00,,,0.00,Weather View 32 v70,2013-07-22 05:00:00,
2013-07-22 01:10:00,69.1,53.6,28.97,NE,48,0.0,0.0,58,0.00,,,0.00,Weather View 32 v70,2013-07-22 05:10:00,
2013-07-22 01:20:00,69.1,53.6,28.97,ESE,103,0.0,0.0,58,0.00,,,0.00,Weather View 32 v70,2013-07-22 05:20:00,
2013-07-22 01:27:00,69.1,53.6,28.97,ESE,103,0.0,0.0,58,0.00,,,0.00,Weather View 32 v70,2013-07-22 05:27:00,
2013-07-22 01:40:00,68.9,53.9,28.97,ESE,103,0.0,0.0,59,0.00,,,0.00,Weather View 32 v70,2013-07-22 05:40:00,
2013-07-22 01:50:00,68.5,54.5,28.97,ESE,103,0.0,0.0,61,0.00,,,0.00,Weather View 32 v70,2013-07-22 05:50:00,
2013-07-22 02:00:00,68.4,54.8,28.97,ESE,103,0.0,0.0,62,0.00,,,0.00,Weather View 32 v70,2013-07-22 06:00:00,
2013-07-22 02:10:00,68.2,55.1,28.94,ESE,103,0.0,0.0,63,0.00,,,0.00,Weather View 32 v70,2013-07-22 06:10:00,
2013-07-22 02:20:00,68.0,55.8,28.94,ESE,103,0.0,0.0,65,0.00,,,0.00,Weather View 32 v70,2013-07-22 06:20:00,
2013-07-22 02:27:00,68.0,55.8,28.94,ESE,103,0.0,0.0,65,0.00,,,0.00,Weather View 32 v70,2013-07-22 06:27:00,
2013-07-22 02:30:00,67.5,55.7,28.94,ESE,103,0.0,0.0,66,0.00,,,0.00,Weather View 32 v70,2013-07-22 06:30:00,
2013-07-22 02:40:00,67.3,56.7,28.94,ESE,103,0.0,0.0,69,0.00,,,0.00,Weather View 32 v70,2013-07-22 06:40:00,
2013-07-22 02:50:00,66.9,57.2,28.94,ESE,103,0.0,0.0,71,0.00,,,0.00,Weather View 32 v70,2013-07-22 06:50:00,
2013-07-22 03:00:00,66.7,58.2,28.97,ESE,103,0.0,0.0,74,0.00,,,0.00,Weather View 32 v70,2013-07-22 07:00:00,
2013-07-22 03:10:00,66.6,58.4,28.94,ESE,103,0.0,0.0,75,0.00,,,0.00,Weather View 32 v70,2013-07-22 07:10:00,
2013-07-22 03:20:00,66.6,59.1,28.94,ESE,103,0.0,0.0,77,0.00,,,0.00,Weather View 32 v70,2013-07-22 07:20:00,
2013-07-22 03:28:00,66.6,59.1,28.94,ESE,103,0.0,0.0,77,0.00,,,0.00,Weather View 32 v70,2013-07-22 07:28:00,
2013-07-22 03:40:00,66.2,59.5,28.94,ESE,103,0.0,0.0,79,0.00,,,0.00,Weather View 32 v70,2013-07-22 07:40:00,
2013-07-22 03:50:00,66.2,59.8,28.94,ESE,103,0.0,0.0,80,0.00,,,0.00,Weather View 32 v70,2013-07-22 07:50:00,
2013-07-22 04:00:00,66.2,59.8,28.94,ESE,103,0.0,0.0,80,0.00,,,0.00,Weather View 32 v70,2013-07-22 08:00:00,
2013-07-22 04:10:00,66.2,60.2,28.91,ESE,103,0.0,0.0,81,0.00,,,0.00,Weather View 32 v70,2013-07-22 08:10:00,
2013-07-22 04:20:00,66.0,60.0,28.91,ESE,103,0.0,0.0,81,0.00,,,0.00,Weather View 32 v70,2013-07-22 08:20:00,
2013-07-22 04:29:00,66.0,60.0,28.91,ESE,103,0.0,0.0,81,0.00,,,0.00,Weather View 32 v70,2013-07-22 08:29:00,
2013-07-22 04:40:00,65.8,59.8,28.91,SSE,165,0.0,0.0,81,0.00,,,0.00,Weather View 32 v70,2013-07-22 08:40:00,
2013-07-22 04:50:00,65.8,60.2,28.91,South,188,0.0,0.0,82,0.00,,,0.00,Weather View 32 v70,2013-07-22 08:50:00,
2013-07-22 05:00:00,66.0,60.0,28.91,South,188,0.0,0.0,81,0.00,,,0.00,Weather View 32 v70,2013-07-22 09:00:00,
2013-07-22 05:10:00,66.0,60.0,28.91,South,188,0.0,0.0,81,0.00,,,0.00,Weather View 32 v70,2013-07-22 09:10:00,
2013-07-22 05:20:00,66.0,60.0,28.91,South,188,0.0,0.0,81,0.00,,,0.00,Weather View 32 v70,2013-07-22 09:20:00,
2013-07-22 05:30:00,66.0,60.0,28.91,South,188,0.0,0.0,81,0.00,,,0.00,Weather View 32 v70,2013-07-22 09:30:00,
2013-07-22 05:40:00,66.0,60.0,28.91,South,188,0.0,0.0,81,0.00,,,0.00,Weather View 32 v70,2013-07-22 09:40:00,
2013-07-22 05:50:00,65.8,59.8,28.91,South,188,0.0,0.0,81,0.00,,,0.00,Weather View 32 v70,2013-07-22 09:50:00,
2013-07-22 06:00:00,66.0,60.3,28.91,South,188,0.0,0.0,82,0.00,,,0.00,Weather View 32 v70,2013-07-22 10:00:00,
2013-07-22 06:10:00,66.0,60.3,28.91,South,188,0.0,0.0,82,0.00,,,0.00,Weather View 32 v70,2013-07-22 10:10:00,
2013-07-22 06:20:00,65.8,60.2,28.91,South,188,0.0,0.0,82,0.00,,,0.00,Weather View 32 v70,2013-07-22 10:20:00,
2013-07-22 06:31:00,65.7,60.0,28.91,South,188,0.0,0.0,82,0.00,,,0.00,Weather View 32 v70,2013-07-22 10:31:00,
2013-07-22 06:40:00,65.5,59.8,28.91,South,188,0.0,0.0,82,0.00,,,0.00,Weather View 32 v70,2013-07-22 10:40:00,
2013-07-22 06:50:00,65.5,59.8,28.91,South,188,0.0,0.0,82,0.00,,,0.00,Weather View 32 v70,2013-07-22 10:50:00,
2013-07-22 07:00:00,65.7,60.3,28.91,South,188,0.0,0.0,83,0.00,,,0.00,Weather View 32 v70,2013-07-22 11:00:00,
2013-07-22 07:10:00,65.8,60.5,28.91,South,188,0.0,0.0,83,0.00,,,0.00,Weather View 32 v70,2013-07-22 11:10:00,
2013-07-22 07:20:00,66.0,61.0,28.91,South,188,0.0,0.0,84,0.00,,,0.00,Weather View 32 v70,2013-07-22 11:20:00,
2013-07-22 07:30:00,66.2,61.2,28.91,South,188,0.0,0.0,84,0.00,,,0.00,Weather View 32 v70,2013-07-22 11:30:00,
2013-07-22 07:40:00,66.6,61.6,28.91,South,188,0.0,0.0,84,0.00,,,0.00,Weather View 32 v70,2013-07-22 11:40:00,
2013-07-22 07:50:00,66.9,62.2,28.91,South,188,0.0,0.0,85,0.00,,,0.00,Weather View 32 v70,2013-07-22 11:50:00,
2013-07-22 08:00:00,67.1,62.1,28.91,South,188,0.0,0.0,84,0.00,,,0.00,Weather View 32 v70,2013-07-22 12:00:00,
2013-07-22 08:10:00,67.3,62.3,28.91,South,188,0.0,0.0,84,0.00,,,0.00,Weather View 32 v70,2013-07-22 12:10:00,
2013-07-22 08:20:00,67.5,62.4,28.91,South,188,0.0,0.0,84,0.00,,,0.00,Weather View 32 v70,2013-07-22 12:20:00,
2013-07-22 08:30:00,67.6,62.6,28.91,South,188,0.0,0.0,84,0.00,,,0.00,Weather View 32 v70,2013-07-22 12:30:00,
2013-07-22 08:40:00,68.0,63.0,28.91,South,188,0.0,0.0,84,0.00,,,0.00,Weather View 32 v70,2013-07-22 12:40:00,
2013-07-22 08:50:00,68.4,63.0,28.91,South,188,0.0,0.0,83,0.00,,,0.00,Weather View 32 v70,2013-07-22 12:50:00,
2013-07-22 09:00:00,68.7,63.0,28.91,South,188,0.0,0.0,82,0.00,,,0.00,Weather View 32 v70,2013-07-22 13:00:00,
2013-07-22 09:10:00,69.1,62.6,28.91,South,188,0.0,0.0,80,0.00,,,0.00,Weather View 32 v70,2013-07-22 13:10:00,
2013-07-22 09:20:00,69.4,61.9,28.91,ENE,75,0.0,2.0,77,0.00,,,0.00,Weather View 32 v70,2013-07-22 13:20:00,
2013-07-22 09:30:00,70.0,62.0,28.91,ENE,75,0.0,2.0,76,0.00,,,0.00,Weather View 32 v70,2013-07-22 13:30:00,
2013-07-22 09:40:00,70.3,61.2,28.91,SE,138,0.0,2.0,73,0.00,,,0.00,Weather View 32 v70,2013-07-22 13:40:00,
2013-07-22 09:50:00,70.7,60.4,28.91,SE,138,0.0,2.0,70,0.00,,,0.00,Weather View 32 v70,2013-07-22 13:50:00,
2013-07-22 10:00:00,71.2,60.9,28.91,SE,138,0.0,2.0,70,0.00,,,0.00,Weather View 32 v70,2013-07-22 14:00:00,
2013-07-22 10:10:00,72.1,60.1,28.88,SE,138,0.0,2.0,66,0.00,,,0.00,Weather View 32 v70,2013-07-22 14:10:00,
2013-07-22 10:20:00,72.5,60.0,28.88,South,180,0.0,4.0,65,0.00,,,0.00,Weather View 32 v70,2013-07-22 14:20:00,
2013-07-22 10:30:00,72.9,60.8,28.88,SE,139,0.0,4.0,66,0.00,,,0.00,Weather View 32 v70,2013-07-22 14:30:00,
2013-07-22 10:40:00,74.1,61.1,28.88,South,181,0.0,4.0,64,0.00,,,0.00,Weather View 32 v70,2013-07-22 14:40:00,
2013-07-22 10:50:00,76.1,59.2,28.88,South,180,0.0,4.0,56,0.00,,,0.00,Weather View 32 v70,2013-07-22 14:50:00,
2013-07-22 11:00:00,76.8,57.8,28.88,SSW,205,2.0,4.0,52,0.00,,,0.00,Weather View 32 v70,2013-07-22 15:00:00,
2013-07-22 11:10:00,77.4,57.8,28.88,SSW,196,0.0,4.0,51,0.00,,,0.00,Weather View 32 v70,2013-07-22 15:10:00,
2013-07-22 11:20:00,77.2,56.5,28.88,South,190,3.0,4.0,49,0.00,,,0.00,Weather View 32 v70,2013-07-22 15:20:00,
2013-07-22 11:30:00,78.1,56.1,28.88,SSW,194,4.0,4.0,47,0.00,,,0.00,Weather View 32 v70,2013-07-22 15:30:00,
2013-07-22 11:35:00,78.1,56.1,28.88,SSW,194,4.0,4.0,47,0.00,,,0.00,Weather View 32 v70,2013-07-22 15:35:00,
2013-07-22 11:50:00,80.6,54.0,28.88,South,184,0.0,5.0,40,0.00,,,0.00,Weather View 32 v70,2013-07-22 15:50:00,
2013-07-22 12:00:00,80.6,54.6,28.88,SSW,197,4.0,5.0,41,0.00,,,0.00,Weather View 32 v70,2013-07-22 16:00:00,
2013-07-22 12:10:00,80.1,54.2,28.88,SE,132,3.0,5.0,41,0.00,,,0.00,Weather View 32 v70,2013-07-22 16:10:00,
2013-07-22 12:20:00,80.6,54.0,28.88,South,184,3.0,5.0,40,0.00,,,0.00,Weather View 32 v70,2013-07-22 16:20:00,
2013-07-22 12:30:00,79.7,55.1,28.88,SSW,202,0.0,5.0,43,0.00,,,0.00,Weather View 32 v70,2013-07-22 16:30:00,
2013-07-22 12:36:00,79.7,55.1,28.88,SSW,202,0.0,5.0,43,0.00,,,0.00,Weather View 32 v70,2013-07-22 16:36:00,
2013-07-22 12:50:00,79.7,53.2,28.88,SSW,205,3.0,5.0,40,0.00,,,0.00,Weather View 32 v70,2013-07-22 16:50:00,
2013-07-22 13:00:00,79.9,54.7,28.88,SSW,208,3.0,5.0,42,0.00,,,0.00,Weather View 32 v70,2013-07-22 17:00:00,
2013-07-22 13:10:00,79.3,54.8,28.88,SSW,206,2.0,5.0,43,0.00,,,0.00,Weather View 32 v70,2013-07-22 17:10:00,
2013-07-22 13:20:00,79.3,54.8,28.88,South,189,3.0,4.0,43,0.00,,,0.00,Weather View 32 v70,2013-07-22 17:20:00,
2013-07-22 13:30:00,80.1,55.5,28.88,SSW,192,2.0,4.0,43,0.00,,,0.00,Weather View 32 v70,2013-07-22 17:30:00,
2013-07-22 13:36:00,80.1,55.5,28.88,SSW,192,2.0,4.0,43,0.00,,,0.00,Weather View 32 v70,2013-07-22 17:36:00,
2013-07-22 13:50:00,80.2,55.6,28.88,SSW,211,0.0,5.0,43,0.00,,,0.00,Weather View 32 v70,2013-07-22 17:50:00,
2013-07-22 14:00:00,79.5,54.3,28.85,SSW,211,3.0,5.0,42,0.00,,,0.00,Weather View 32 v70,2013-07-22 18:00:00,
2013-07-22 14:20:00,79.3,54.2,28.85,South,191,2.0,5.0,42,0.00,,,0.00,Weather View 32 v70,2013-07-22 18:20:00,
2013-07-22 14:30:00,79.2,54.7,28.85,SSW,195,3.0,5.0,43,0.00,,,0.00,Weather View 32 v70,2013-07-22 18:30:00,
2013-07-22 14:37:00,79.2,54.7,28.85,SSW,195,3.0,5.0,43,0.00,,,0.00,Weather View 32 v70,2013-07-22 18:37:00,
2013-07-22 14:50:00,79.0,53.9,28.85,SSW,198,2.0,4.0,42,0.00,,,0.00,Weather View 32 v70,2013-07-22 18:50:00,
2013-07-22 15:00:00,79.0,53.2,28.85,SW,214,0.0,4.0,41,0.00,,,0.00,Weather View 32 v70,2013-07-22 19:00:00,
2013-07-22 15:21:00,78.6,52.9,28.85,SSW,196,3.0,4.0,41,0.00,,,0.00,Weather View 32 v70,2013-07-22 19:21:00,
2013-07-22 15:30:00,79.2,53.4,28.85,SSW,195,3.0,4.0,41,0.00,,,0.00,Weather View 32 v70,2013-07-22 19:30:00,
2013-07-22 15:37:00,79.2,53.4,28.85,SSW,195,3.0,4.0,41,0.00,,,0.00,Weather View 32 v70,2013-07-22 19:37:00,
2013-07-22 15:50:00,79.0,49.7,28.85,SSW,209,3.0,4.0,36,0.00,,,0.00,Weather View 32 v70,2013-07-22 19:50:00,
2013-07-22 16:00:00,79.0,51.8,28.85,SSW,195,3.0,4.0,39,0.00,,,0.00,Weather View 32 v70,2013-07-22 20:00:00,
2013-07-22 16:10:00,79.3,52.2,28.82,South,189,0.0,4.0,39,0.00,,,0.00,Weather View 32 v70,2013-07-22 20:10:00,
2013-07-22 16:20:00,79.0,51.8,28.82,South,189,0.0,4.0,39,0.00,,,0.00,Weather View 32 v70,2013-07-22 20:20:00,
2013-07-22 16:30:00,79.0,52.5,28.82,SW,219,0.0,4.0,40,0.00,,,0.00,Weather View 32 v70,2013-07-22 20:30:00,
2013-07-22 16:39:00,79.0,52.5,28.82,SW,219,0.0,4.0,40,0.00,,,0.00,Weather View 32 v70,2013-07-22 20:39:00,
2013-07-22 16:40:00,79.2,53.4,28.82,South,187,0.0,4.0,41,0.00,,,0.00,Weather View 32 v70,2013-07-22 20:40:00,
2013-07-22 16:50:00,79.0,51.1,28.82,SSW,200,0.0,4.0,38,0.00,,,0.00,Weather View 32 v70,2013-07-22 20:50:00,
2013-07-22 17:00:00,79.0,52.5,28.82,SSW,196,3.0,4.0,40,0.00,,,0.00,Weather View 32 v70,2013-07-22 21:00:00,
2013-07-22 17:10:00,78.8,52.4,28.82,South,189,0.0,4.0,40,0.00,,,0.00,Weather View 32 v70,2013-07-22 21:10:00,
2013-07-22 17:20:00,77.9,51.6,28.82,SSW,193,2.0,4.0,40,0.00,,,0.00,Weather View 32 v70,2013-07-22 21:20:00,
2013-07-22 17:30:00,78.1,52.4,28.82,SSW,204,0.0,4.0,41,0.00,,,0.00,Weather View 32 v70,2013-07-22 21:30:00,
2013-07-22 17:40:00,78.1,51.0,28.82,SSW,204,0.0,4.0,39,0.00,,,0.00,Weather View 32 v70,2013-07-22 21:40:00,
2013-07-22 17:50:00,78.1,51.7,28.82,SSW,204,3.0,4.0,40,0.00,,,0.00,Weather View 32 v70,2013-07-22 21:50:00,
2013-07-22 18:00:00,78.1,51.7,28.79,SSW,204,0.0,4.0,40,0.00,,,0.00,Weather View 32 v70,2013-07-22 22:00:00,
2013-07-22 18:10:00,78.4,52.0,28.79,SE,146,0.0,4.0,40,0.00,,,0.00,Weather View 32 v70,2013-07-22 22:10:00,
2013-07-22 18:20:00,78.3,50.5,28.79,SSW,192,0.0,4.0,38,0.00,,,0.00,Weather View 32 v70,2013-07-22 22:20:00,
2013-07-22 18:30:00,78.1,51.0,28.79,SSW,192,0.0,4.0,39,0.00,,,0.00,Weather View 32 v70,2013-07-22 22:30:00,
2013-07-22 18:40:00,77.9,51.6,28.79,SSW,192,0.0,3.0,40,0.00,,,0.00,Weather View 32 v70,2013-07-22 22:40:00,
2013-07-22 18:50:00,77.7,50.0,28.79,SSW,202,3.0,4.0,38,0.00,,,0.00,Weather View 32 v70,2013-07-22 22:50:00,
2013-07-22 19:00:00,77.4,51.1,28.79,SSW,203,2.0,4.0,40,0.00,,,0.00,Weather View 32 v70,2013-07-22 23:00:00,
2013-07-22 19:10:00,77.2,51.6,28.79,SSW,203,0.0,4.0,41,0.00,,,0.00,Weather View 32 v70,2013-07-22 23:10:00,
2013-07-22 19:20:00,77.0,50.8,28.79,SSW,203,0.0,4.0,40,0.00,,,0.00,Weather View 32 v70,2013-07-22 23:20:00,
2013-07-22 19:30:00,76.6,50.4,28.79,SSW,203,0.0,4.0,40,0.00,,,0.00,Weather View 32 v70,2013-07-22 23:30:00,
2013-07-22 19:40:00,76.5,50.9,28.79,SSW,203,0.0,4.0,41,0.00,,,0.00,Weather View 32 v70,2013-07-22 23:40:00,
2013-07-22 19:50:00,76.1,51.3,28.79,SSW,203,0.0,3.0,42,0.00,,,0.00,Weather View 32 v70,2013-07-22 23:50:00,
2013-07-22 20:00:00,75.7,50.9,28.79,SSW,203,0.0,3.0,42,0.00,,,0.00,Weather View 32 v70,2013-07-23 00:00:00,
2013-07-22 20:10:00,75.6,50.8,28.76,SSW,203,0.0,3.0,42,0.00,,,0.00,Weather View 32 v70,2013-07-23 00:10:00,
2013-07-22 20:20:00,75.4,51.3,28.76,SSW,203,0.0,0.0,43,0.00,,,0.00,Weather View 32 v70,2013-07-23 00:20:00,
2013-07-22 20:30:00,75.0,51.6,28.76,SSW,203,0.0,0.0,44,0.00,,,0.00,Weather View 32 v70,2013-07-23 00:30:00,
2013-07-22 20:40:00,74.3,53.3,28.76,SSW,203,0.0,0.0,48,0.00,,,0.00,Weather View 32 v70,2013-07-23 00:40:00,
2013-07-22 20:50:00,73.2,54.0,28.76,SSW,203,0.0,0.0,51,0.00,,,0.00,Weather View 32 v70,2013-07-23 00:50:00,
2013-07-22 21:00:00,72.3,55.7,28.76,SSW,203,0.0,0.0,56,0.00,,,0.00,Weather View 32 v70,2013-07-23 01:00:00,
2013-07-22 21:10:00,71.6,56.0,28.76,SSW,203,0.0,0.0,58,0.00,,,0.00,Weather View 32 v70,2013-07-23 01:10:00,
2013-07-22 21:20:00,70.9,56.7,28.76,SSW,203,0.0,0.0,61,0.00,,,0.00,Weather View 32 v70,2013-07-23 01:20:00,
2013-07-22 21:30:00,70.3,57.5,28.76,SSW,203,0.0,0.0,64,0.00,,,0.00,Weather View 32 v70,2013-07-23 01:30:00,
2013-07-22 21:40:00,70.0,57.6,28.76,SSW,203,0.0,0.0,65,0.00,,,0.00,Weather View 32 v70,2013-07-23 01:40:00,
2013-07-22 21:50:00,69.4,58.0,28.76,SSW,203,0.0,0.0,67,0.00,,,0.00,Weather View 32 v70,2013-07-23 01:50:00,
2013-07-22 22:00:00,69.1,58.0,28.79,SSW,203,0.0,0.0,68,0.00,,,0.00,Weather View 32 v70,2013-07-23 02:00:00,
2013-07-22 22:10:00,68.7,58.1,28.79,SSW,203,0.0,0.0,69,0.00,,,0.00,Weather View 32 v70,2013-07-23 02:10:00,
2013-07-22 22:20:00,68.5,58.3,28.79,SSW,203,0.0,0.0,70,0.00,,,0.00,Weather View 32 v70,2013-07-23 02:20:00,
2013-07-22 22:30:00,68.2,58.4,28.79,SSW,203,0.0,0.0,71,0.00,,,0.00,Weather View 32 v70,2013-07-23 02:30:00,
2013-07-22 22:40:00,67.8,58.4,28.79,SSW,203,0.0,0.0,72,0.00,,,0.00,Weather View 32 v70,2013-07-23 02:40:00,
2013-07-22 22:50:00,67.5,58.9,28.79,SSW,203,0.0,0.0,74,0.00,,,0.00,Weather View 32 v70,2013-07-23 02:50:00,
2013-07-22 23:00:00,67.3,59.4,28.76,SSW,203,0.0,0.0,76,0.00,,,0.00,Weather View 32 v70,2013-07-23 03:00:00,
2013-07-22 23:10:00,67.5,60.0,28.76,SSW,203,0.0,0.0,77,0.00,,,0.00,Weather View 32 v70,2013-07-23 03:10:00,
2013-07-22 23:20:00,68.2,60.3,28.76,SSW,203,0.0,0.0,76,0.00,,,0.00,Weather View 32 v70,2013-07-23 03:20:00,
2013-07-22 23:30:00,68.4,59.0,28.79,SSW,203,0.0,0.0,72,0.00,,,0.00,Weather View 32 v70,2013-07-23 03:30:00,
2013-07-22 23:40:00,68.7,58.9,28.79,SSW,203,0.0,0.0,71,0.00,,,0.00,Weather View 32 v70,2013-07-23 03:40:00,
2013-07-22 23:50:00,69.1,58.9,28.79,SSW,203,0.0,0.0,70,0.00,,,0.00,Weather View 32 v70,2013-07-23 03:50:00,